createdAt,value
2019-01-21T19:51:04.251Z,39.85
2019-01-21T19:53:34.179Z,35.87
2019-01-21T19:56:03.998Z,41.10
2019-01-21T19:58:34.810Z,43.23
2019-01-21T20:01:04.906Z,42.70
2019-01-21T20:03:34.714Z,37.40
2019-01-21T20:06:04.662Z,36.97
2019-01-21T20:08:34.900Z,35.07
2019-01-21T20:11:05.104Z,40.90
2019-01-21T20:13:35.908Z,35.80
2019-01-21T20:16:05.656Z,35.07
2019-01-21T20:18:35.518Z,39.83
2019-01-21T20:21:05.392Z,37.73
2019-01-21T20:23:35.220Z,36.97
2019-01-21T20:26:04.979Z,36.87
2019-01-21T20:28:34.899Z,37.47
2019-01-21T20:31:05.445Z,33.93
2019-01-21T20:33:35.611Z,37.17
2019-01-21T20:36:05.621Z,37.57
2019-01-21T20:38:36.837Z,36.50
2019-01-21T20:41:06.694Z,40.97
2019-01-21T20:43:36.523Z,42.60
2019-01-21T20:46:06.317Z,39.90
2019-01-21T20:48:36.268Z,42.70
2019-01-21T20:51:06.062Z,40.40
2019-01-21T20:53:35.815Z,35.17
2019-01-21T20:56:08.199Z,36.47
2019-01-21T20:58:39.056Z,36.77
2019-01-21T21:01:08.824Z,37.03
2019-01-21T21:03:38.714Z,36.03
2019-01-21T21:06:08.752Z,36.20
2019-01-21T21:08:38.706Z,39.87
2019-01-21T21:11:09.794Z,39.78
2019-01-21T21:13:39.690Z,38.07
2019-01-21T21:16:09.826Z,37.70
2019-01-21T21:18:39.819Z,37.73
2019-01-21T21:21:09.860Z,33.57
2019-01-21T21:23:40.548Z,33.40
2019-01-21T21:26:10.492Z,33.77
2019-01-21T21:28:40.321Z,45.17
2019-01-21T21:31:10.244Z,34.73
2019-01-21T21:33:40.339Z,32.03
2019-01-21T21:36:10.253Z,33.90
2019-01-21T21:38:40.455Z,32.67
2019-01-21T21:41:10.669Z,30.70
2019-01-21T21:43:40.416Z,29.57
2019-01-21T21:46:10.293Z,30.20
2019-01-21T21:48:39.947Z,29.70
2019-01-21T21:51:10.118Z,35.77
2019-01-21T21:53:39.889Z,43.17
2019-01-21T21:56:11.207Z,34.40
2019-01-21T21:58:41.099Z,29.20
2019-01-21T22:01:11.148Z,33.17
2019-01-21T22:03:41.110Z,28.73
2019-01-21T22:06:11.474Z,28.50
2019-01-21T22:08:41.328Z,29.90
2019-01-21T22:11:11.110Z,31.03
2019-01-21T22:13:40.804Z,30.30
2019-01-21T22:16:11.292Z,32.17
2019-01-21T22:18:41.426Z,31.27
2019-01-21T22:21:11.694Z,27.53
2019-01-21T22:23:41.795Z,31.27
2019-01-21T22:26:11.585Z,28.40
2019-01-21T22:28:41.915Z,30.03
2019-01-21T22:31:11.751Z,29.23
2019-01-21T22:33:41.944Z,32.20
2019-01-21T22:36:12.149Z,29.27
2019-01-21T22:38:41.913Z,29.90
2019-01-21T22:41:12.535Z,28.10
2019-01-21T22:43:42.445Z,25.97
2019-01-21T22:46:12.503Z,28.17
2019-01-21T22:48:42.185Z,29.10
2019-01-21T22:51:12.304Z,27.17
2019-01-21T22:53:42.341Z,28.03
2019-01-21T22:56:12.547Z,28.03
2019-01-21T22:58:42.299Z,30.70
2019-01-21T23:01:25.150Z,30.97
2019-01-21T23:03:55.811Z,28.97
2019-01-21T23:06:26.074Z,30.37
2019-01-21T23:08:55.820Z,27.70
2019-01-21T23:11:25.719Z,28.43
2019-01-21T23:13:55.703Z,28.57
2019-01-21T23:16:25.561Z,28.23
2019-01-21T23:18:55.420Z,26.80
2019-01-21T23:21:25.438Z,25.07
2019-01-21T23:23:55.262Z,25.10
2019-01-21T23:26:25.360Z,26.70
2019-01-21T23:28:55.219Z,23.50
2019-01-21T23:31:24.976Z,28.93
2019-01-21T23:33:54.782Z,24.37
2019-01-21T23:36:25.026Z,23.67
2019-01-21T23:38:55.091Z,24.50
2019-01-21T23:41:25.302Z,24.60
2019-01-21T23:43:55.163Z,25.07
2019-01-21T23:46:25.020Z,23.07
2019-01-21T23:48:55.201Z,26.90
2019-01-21T23:51:24.974Z,24.43
2019-01-21T23:53:54.767Z,22.90
2019-01-21T23:56:24.506Z,20.83
2019-01-21T23:58:54.506Z,23.60
